ADDS METAR Data INFO
IDs: Format: Raw Decoded Include TAF

Data at: 1640 UTC 22 Jul 2017

KCPR 221553Z 35009KT 9SM CLR 25/01 A3024 RMK AO2 SLP162 T02500006
KCPR 221453Z 36012KT 10SM CLR 23/02 A3023 RMK AO2 SLP161 T02280017 51018
KCPR 221353Z 26006KT 10SM CLR 20/09 A3021 RMK AO2 SLP155 T02000089
KCPR 221253Z 27006KT 10SM CLR 17/09 A3019 RMK AO2 SLP148 T01720094
KCPR 221153Z 26008KT 10SM CLR 14/09 A3017 RMK AO2 SLP141 T01440094 10222 20139 53011
KCPR 221053Z 25009KT 10SM CLR 16/09 A3015 RMK AO2 SLP134 T01610094
KCPR 220953Z AUTO 24010KT 10SM CLR 18/09 A3014 RMK AO2 SLP130 T01780094
KCPR 220853Z AUTO 31004KT 10SM CLR 19/09 A3013 RMK AO2 SLP125 T01940089 51007
KCPR 220753Z AUTO 21009G18KT 10SM CLR 22/09 A3012 RMK AO2 SLP119 T02170089
KCPR 220653Z AUTO 20016G21KT 10SM CLR 22/08 A3011 RMK AO2 SLP115 T02220083 403330172
KCPR 220553Z AUTO 20016KT 10SM CLR 22/09 A3011 RMK AO2 SLP114 T02220089 10328 20222 51012
KCPR 220453Z AUTO 21011G20KT 10SM CLR 23/08 A3010 RMK AO2 PK WND 20027/0412 SLP115 T02280078
KCPR 220353Z AUTO 20013G22KT 10SM CLR 24/08 A3009 RMK AO2 PK WND 18026/0341 SLP110 T02440078
KCPR 220253Z AUTO 00000KT 10SM CLR 26/06 A3007 RMK AO2 SLP102 T02560061 53008
KCPR 220153Z 00000KT 10SM SCT120 29/03 A3006 RMK AO2 SLP098 T02890033
KCPR 220053Z 31008KT 10SM SCT120 31/01 A3005 RMK AO2 SLP094 T03110011
KCPR 212353Z 34009KT 10SM SCT120 33/03 A3004 RMK AO2 SLP091 T03280028 10333 20278 58013
KCPR 212253Z 06006KT 10SM CLR 32/08 A3005 RMK AO2 SLP096 T03220078
KCPR 212153Z 14006KT 10SM CLR 31/08 A3008 RMK AO2 SLP104 T03060083
KCPR 212053Z 14004KT 10SM BKN095 30/08 A3008 RMK AO2 LTG DSNT SE SLP109 T03000078 58014
KCPR 211953Z VRB05KT 10SM BKN090 31/08 A3010 RMK AO2 SLP112 T03060083
KCPR 211853Z 10SM CLR 31/08 A3012 RMK AO2 SLP123 T03060083
KCPR 211753Z VRB03KT 10SM CLR 28/09 A3013 RMK AO2 SLP130 T02830089 10283 20172 50002
KCPR 211653Z VRB06KT 10SM CLR 27/10 A3014 RMK AO2 SLP137 T02670100
KCPR 211553Z 23009KT 10SM CLR 26/11 A3014 RMK AO2 SLP138 T02560106
KCPR 211453Z 23013KT 10SM CLR 24/10 A3013 RMK AO2 SLP133 T02390100 51010
KCPR 211353Z 24011KT 10SM CLR 22/12 A3012 RMK AO2 SLP127 T02220117
KCPR 211253Z 24007KT 10SM CLR 19/11 A3010 RMK AO2 SLP111 T01940111
KCPR 211153Z 26008KT 10SM CLR 18/12 A3009 RMK AO2 SLP108 T01780117 10206 20172 53007
KCPR 211053Z 28006KT 10SM CLR 19/12 A3008 RMK AO2 SLP105 T01890117
KCPR 210953Z AUTO 24011KT 10SM CLR 21/11 A3007 RMK AO2 SLP097 T02060111
KCPR 210853Z AUTO 23014KT 10SM CLR 20/11 A3007 RMK AO2 SLP098 T02000111 58005
KCPR 210753Z AUTO 21013G17KT 10SM CLR 20/12 A3007 RMK AO2 WSHFT 0656 SLP101 T02000122
KCPR 210716Z AUTO 22009KT 10SM CLR 19/12 A3009 RMK AO2 WSHFT 0656 T01940122
KCPR 210653Z AUTO 26005KT 10SM CLR 18/13 A3008 RMK AO2 SLP109 T01780133 403500156
KCPR 210553Z AUTO 27007KT 10SM CLR 18/13 A3008 RMK AO2 SLP111 60000 T01780133 10339 20172 58009
KCPR 210453Z AUTO 14007KT 10SM BKN110 18/14 A3011 RMK AO2 RAB28E51 SLP124 P0000 T01780139